Gorgona — IBUW — position and weather

sailwx.info

Track history (hours):
 
Tides and Currents Weather Stations Pressure Air Temp Water Temp Dewpoint Dewpoint Depression Visibility Wind Speed Wind Dir Waves Ship Positions

Gorgona

Last reported at 2016-Dec-07 11:24 UTC. Time now 2016-Dec-11 02:13 UTC.
Position N 43°30' E 010°16'.

Length 74 m; draft 3.5 m.

Type: Tanker. MMSI: 247164900.

Date/timePositionNaut miles runAvg speedWind from/ knotsBaromVisibWave heightAir tempDewpointWater temp
2016-Dec-07 11:24N 43°30' E 010°16'0 0.0
2016-Dec-07 10:33N 43°30' E 010°16'3 2.8
2016-Dec-07 09:34N 43°32' E 010°17'1 1.2
2016-Dec-07 08:33N 43°33' E 010°18'1 0.9
2016-Dec-07 07:33N 43°34' E 010°18'1 1.1
2016-Dec-07 06:33N 43°35' E 010°19'0 0.0
2016-Dec-07 05:30N 43°35' E 010°19'0 0.0
2016-Dec-07 04:33N 43°35' E 010°19'0 0.0
2016-Dec-07 03:33N 43°35' E 010°19'0 0.0
2016-Dec-07 02:33N 43°35' E 010°19'0 0.0
2016-Dec-07 01:33N 43°35' E 010°19'0 0.0
2016-Dec-07 00:30N 43°35' E 010°19'0 0.0
2016-Dec-06 23:33N 43°35' E 010°19'0 0.0
2016-Dec-06 22:33N 43°35' E 010°19'0 0.0
2016-Dec-06 21:33N 43°35' E 010°19'0 0.0
2016-Dec-06 20:33N 43°35' E 010°19'2 1.0
2016-Dec-06 18:32N 43°33' E 010°18'0 0.2
2016-Dec-06 17:25N 43°33' E 010°18'0 0.0
2016-Dec-06 16:28N 43°33' E 010°18'0 0.0
2016-Dec-06 15:31N 43°33' E 010°18'3 3.6
2016-Dec-06 14:32N 43°30' E 010°17'0 0.0
2016-Dec-06 13:29N 43°30' E 010°17'0 0.0
2016-Dec-06 12:32N 43°30' E 010°17'0 0.0
2016-Dec-06 11:32N 43°30' E 010°17'3 3.0
2016-Dec-06 10:33N 43°33' E 010°18'0 0.2
2016-Dec-06 09:33N 43°33' E 010°18'1 0.7
2016-Dec-06 08:31N 43°34' E 010°18'0 0.0
2016-Dec-06 07:31N 43°34' E 010°18'0 0.0
2016-Dec-06 06:28N 43°34' E 010°18'0 0.0
2016-Dec-06 05:28N 43°34' E 010°18'0 0.0
2016-Dec-06 04:31N 43°34' E 010°18'0 0.0
2016-Dec-06 03:25N 43°34' E 010°18'0 0.0
2016-Dec-06 02:31N 43°34' E 010°18'0 0.0
2016-Dec-06 01:31N 43°34' E 010°18'0 0.0
2016-Dec-06 00:31N 43°34' E 010°18'0 0.0
2016-Dec-05 23:31N 43°34' E 010°18'0 0.3
2016-Dec-05 22:33N 43°34' E 010°18'1 1.4
2016-Dec-05 21:33N 43°35' E 010°19'0 0.0
2016-Dec-05 20:33N 43°35' E 010°19'0 0.0
2016-Dec-05 19:33N 43°35' E 010°19'0 0.0
2016-Dec-05 18:33N 43°35' E 010°19'0 0.0
2016-Dec-05 17:32N 43°35' E 010°19'0 0.5
2016-Dec-05 16:33N 43°35' E 010°19'2 1.7
2016-Dec-05 15:33N 43°33' E 010°18'2 0.3
2016-Dec-05 09:32N 43°35' E 010°19'0 0.4
2016-Dec-05 08:33N 43°35' E 010°19'0 0.1
2016-Dec-05 07:28N 43°35' E 010°19'0 0.0
2016-Dec-05 06:13N 43°35' E 010°19'0 0.0
2016-Dec-05 05:31N 43°35' E 010°19'0 0.0
2016-Dec-05 04:31N 43°35' E 010°19'0 0.0
2016-Dec-05 03:31N 43°35' E 010°19'0 0.0
2016-Dec-05 02:28N 43°35' E 010°19'0 0.0
2016-Dec-05 01:28N 43°35' E 010°19'0 0.0
2016-Dec-05 00:31N 43°35' E 010°19'0 0.0
2016-Dec-04 23:31N 43°35' E 010°19'0 0.0
2016-Dec-04 22:31N 43°35' E 010°19'0 0.0
2016-Dec-04 21:28N 43°35' E 010°19'0 0.0
2016-Dec-04 20:31N 43°35' E 010°19'0 0.0
2016-Dec-04 19:31N 43°35' E 010°19'0 0.0
2016-Dec-04 18:34N 43°35' E 010°19'0 0.0
2016-Dec-04 17:33N 43°35' E 010°19'0 0.0
2016-Dec-04 16:33N 43°35' E 010°19'0 0.0
2016-Dec-04 15:33N 43°35' E 010°19'0 0.0
2016-Dec-04 14:33N 43°35' E 010°19'0 0.0
2016-Dec-04 13:30N 43°35' E 010°19'0 0.0
2016-Dec-04 12:33N 43°35' E 010°19'0 0.0
2016-Dec-04 11:33N 43°35' E 010°19'0 0.0
2016-Dec-04 10:33N 43°35' E 010°19'0 0.0
2016-Dec-04 09:33N 43°35' E 010°19'0 0.0
2016-Dec-04 08:33N 43°35' E 010°19'0 0.0
2016-Dec-04 07:33N 43°35' E 010°19'0 0.0
2016-Dec-04 06:33N 43°35' E 010°19'0 0.0
2016-Dec-04 05:33N 43°35' E 010°19'0 0.0
2016-Dec-04 04:33N 43°35' E 010°19'0 0.0
2016-Dec-04 03:33N 43°35' E 010°19'0 0.0
2016-Dec-04 02:24N 43°35' E 010°19'0 0.0
2016-Dec-04 01:33N 43°35' E 010°19'0 0.0
2016-Dec-04 00:27N 43°35' E 010°19'0 0.0
2016-Dec-03 23:30N 43°35' E 010°19'0 0.0
2016-Dec-03 22:30N 43°35' E 010°19'0 0.0
2016-Dec-03 21:24N 43°35' E 010°19'0 0.0
2016-Dec-03 20:30N 43°35' E 010°19'0 0.0
2016-Dec-03 19:30N 43°35' E 010°19'0 0.0
2016-Dec-03 18:30N 43°35' E 010°19'0 0.0
2016-Dec-03 17:33N 43°35' E 010°19'0 0.0
2016-Dec-03 16:27N 43°35' E 010°19'0 0.0
2016-Dec-03 15:30N 43°35' E 010°19'0 0.0
2016-Dec-03 14:33N 43°35' E 010°19'0 0.0
2016-Dec-03 13:27N 43°35' E 010°19'0 0.0
2016-Dec-03 12:30N 43°35' E 010°19'0 0.0
2016-Dec-03 11:33N 43°35' E 010°19'0 0.0
2016-Dec-03 10:24N 43°35' E 010°19'0 0.0
2016-Dec-03 09:33N 43°35' E 010°19'0 0.0
2016-Dec-03 08:27N 43°35' E 010°19'0 0.0
2016-Dec-03 07:33N 43°35' E 010°19'0 0.1
2016-Dec-03 06:32N 43°35' E 010°19'0 0.0
2016-Dec-03 05:32N 43°35' E 010°19'0 0.0
2016-Dec-03 04:32N 43°35' E 010°19'0 0.0
2016-Dec-03 03:32N 43°35' E 010°19'0 0.0
2016-Dec-03 02:32N 43°35' E 010°19'0 0.0
2016-Dec-03 01:32N 43°35' E 010°19'0 0.0
2016-Dec-03 00:32N 43°35' E 010°19'0 0.0
2016-Dec-02 23:29N 43°35' E 010°19'0 0.0
2016-Dec-02 22:32N 43°35' E 010°19'0 0.0
2016-Dec-02 21:32N 43°35' E 010°19'0 0.0
2016-Dec-02 20:32N 43°35' E 010°19'0 0.0
2016-Dec-02 19:32N 43°35' E 010°19'0 0.0
2016-Dec-02 18:32N 43°35' E 010°19'0 0.0
2016-Dec-02 17:32N 43°35' E 010°19'0 0.0
2016-Dec-02 16:29N 43°35' E 010°19'0 0.0
2016-Dec-02 15:32N 43°35' E 010°19'0 0.0
2016-Dec-02 14:32N 43°35' E 010°19'0 0.0
2016-Dec-02 13:32N 43°35' E 010°19'0 0.0
2016-Dec-02 12:29N 43°35' E 010°19'0 0.0
2016-Dec-02 11:29N 43°35' E 010°19'0 0.0
2016-Dec-02 10:32N 43°35' E 010°19'0 0.0
2016-Dec-02 09:32N 43°35' E 010°19'0 0.0
2016-Dec-02 08:32N 43°35' E 010°19'0 0.0
2016-Dec-02 07:32N 43°35' E 010°19'0 0.0
2016-Dec-02 06:32N 43°35' E 010°19'0 0.0
2016-Dec-02 05:32N 43°35' E 010°19'0 0.0
2016-Dec-02 04:32N 43°35' E 010°19'0 0.0
2016-Dec-02 03:32N 43°35' E 010°19'0 0.0
2016-Dec-02 02:32N 43°35' E 010°19'0 0.0
2016-Dec-02 01:32N 43°35' E 010°19'0 0.0
2016-Dec-02 00:32N 43°35' E 010°19'0 0.0
2016-Dec-01 23:29N 43°35' E 010°19'0 0.0
2016-Dec-01 22:32N 43°35' E 010°19'0 0.0
2016-Dec-01 21:32N 43°35' E 010°19'0 0.0
2016-Dec-01 20:31N 43°35' E 010°19'0 0.0
2016-Dec-01 19:31N 43°35' E 010°19'0 0.0
2016-Dec-01 18:31N 43°35' E 010°19'0 0.0
2016-Dec-01 17:31N 43°35' E 010°19'0 0.0
2016-Dec-01 16:31N 43°35' E 010°19'0 0.0
2016-Dec-01 15:31N 43°35' E 010°19'0 0.0
2016-Dec-01 14:31N 43°35' E 010°19'0 0.0
2016-Dec-01 13:31N 43°35' E 010°19'0 0.0
2016-Dec-01 12:31N 43°35' E 010°19'0 0.0
2016-Dec-01 11:31N 43°35' E 010°19'0 0.0
2016-Dec-01 10:31N 43°35' E 010°19'0 0.0
2016-Dec-01 09:31N 43°35' E 010°19'0 0.0
2016-Dec-01 08:31N 43°35' E 010°19'0 0.0
2016-Dec-01 07:31N 43°35' E 010°19'0 0.0
2016-Dec-01 06:31N 43°35' E 010°19'0 0.0
2016-Dec-01 05:31N 43°35' E 010°19'0 0.0
2016-Dec-01 04:31N 43°35' E 010°19'0 0.0
2016-Dec-01 03:31N 43°35' E 010°19'0 0.0
2016-Dec-01 02:31N 43°35' E 010°19'0 0.0
2016-Dec-01 01:31N 43°35' E 010°19'0 0.0
2016-Dec-01 00:31N 43°35' E 010°19'0 0.0
2016-Nov-30 23:31N 43°35' E 010°19'0 0.0
2016-Nov-30 22:31N 43°35' E 010°19'0 0.0
2016-Nov-30 21:31N 43°35' E 010°19'0 0.0
2016-Nov-30 20:31N 43°35' E 010°19'0 0.0
2016-Nov-30 19:31N 43°35' E 010°19'0 0.0
2016-Nov-30 18:31N 43°35' E 010°19'0 0.0
2016-Nov-30 17:31N 43°35' E 010°19'0 0.0
2016-Nov-30 16:31N 43°35' E 010°19'0 0.0
2016-Nov-30 15:31N 43°35' E 010°19'0 0.2
2016-Nov-30 14:32N 43°35' E 010°19'1 1.5
2016-Nov-30 13:31N 43°34' E 010°18'0 0.0
2016-Nov-30 12:28N 43°34' E 010°18'0 0.0
2016-Nov-30 11:31N 43°34' E 010°18'0 0.0
2016-Nov-30 10:31N 43°34' E 010°18'0 0.0
2016-Nov-30 09:31N 43°34' E 010°18'0 0.0
2016-Nov-30 08:28N 43°34' E 010°18'0 0.0
2016-Nov-30 07:31N 43°34' E 010°18'0 0.0
2016-Nov-30 06:31N 43°34' E 010°18'0 0.0
2016-Nov-30 05:31N 43°34' E 010°18'0 0.0
2016-Nov-30 04:31N 43°34' E 010°18'0 0.0
2016-Nov-30 03:31N 43°34' E 010°18'0 0.0
2016-Nov-30 02:31N 43°34' E 010°18'0 0.0
2016-Nov-30 01:34N 43°34' E 010°18'0 0.0
2016-Nov-30 00:33N 43°34' E 010°18'0 0.0
2016-Nov-29 23:33N 43°34' E 010°18'0 0.0
2016-Nov-29 22:33N 43°34' E 010°18'0 0.0
2016-Nov-29 21:33N 43°34' E 010°18'0 0.0
2016-Nov-29 20:33N 43°34' E 010°18'0 0.5
2016-Nov-29 19:32N 43°33' E 010°18'0 0.0
2016-Nov-29 18:26N 43°33' E 010°18'0 0.4
2016-Nov-29 17:33N 43°33' E 010°18'2 1.5
2016-Nov-29 16:28N 43°35' E 010°19'0 0.0
2016-Nov-29 15:31N 43°35' E 010°19'0 0.0
2016-Nov-29 14:25N 43°35' E 010°19'0 0.4
2016-Nov-29 13:31N 43°34' E 010°19'0 0.0
2016-Nov-29 12:31N 43°34' E 010°19'0 0.2
2016-Nov-29 11:31N 43°34' E 010°19'1 0.9
2016-Nov-29 10:32N 43°35' E 010°19'0 0.0
2016-Nov-29 09:29N 43°35' E 010°19'0 0.0
2016-Nov-29 08:32N 43°35' E 010°19'0 0.0
2016-Nov-29 07:32N 43°35' E 010°19'0 0.0
2016-Nov-29 06:32N 43°35' E 010°19'0 0.0
2016-Nov-29 05:32N 43°35' E 010°19'0 0.0
2016-Nov-29 04:29N 43°35' E 010°19'0 0.0
2016-Nov-29 03:32N 43°35' E 010°19'0 0.0
2016-Nov-29 02:32N 43°35' E 010°19'0 0.0
2016-Nov-29 01:32N 43°35' E 010°19'0 0.0
2016-Nov-29 00:32N 43°35' E 010°19'0 0.0
2016-Nov-28 23:32N 43°35' E 010°19'0 0.0
2016-Nov-28 22:32N 43°35' E 010°19'0 0.0
2016-Nov-28 21:32N 43°35' E 010°19'0 0.0
2016-Nov-28 20:32N 43°35' E 010°19'0 0.0
2016-Nov-28 19:29N 43°35' E 010°19'0 0.0
2016-Nov-28 18:32N 43°35' E 010°19'0 0.0
2016-Nov-28 17:32N 43°35' E 010°19'0 0.0
2016-Nov-28 16:32N 43°35' E 010°19'2 1.7
2016-Nov-28 15:29N 43°34' E 010°18'0 0.0
2016-Nov-28 14:32N 43°34' E 010°18'0 0.0
2016-Nov-28 13:29N 43°34' E 010°18'0 0.0
2016-Nov-28 12:29N 43°34' E 010°18'0 0.0
2016-Nov-28 11:26N 43°34' E 010°18'0 0.0
2016-Nov-28 10:32N 43°34' E 010°18'0 0.0
2016-Nov-28 09:32N 43°34' E 010°18'0 0.0
2016-Nov-28 08:32N 43°34' E 010°18'0 0.0
2016-Nov-28 07:32N 43°34' E 010°18'0 0.0
2016-Nov-28 06:32N 43°34' E 010°18'0 0.0
2016-Nov-28 05:32N 43°34' E 010°18'0 0.0
2016-Nov-28 04:32N 43°34' E 010°18'0 0.0
2016-Nov-28 03:32N 43°34' E 010°18'0 0.0
2016-Nov-28 02:26N 43°34' E 010°18'0 0.0
2016-Nov-28 01:32N 43°34' E 010°18'0 0.0
2016-Nov-28 00:32N 43°34' E 010°18'0 0.0
2016-Nov-27 23:32N 43°34' E 010°18'0 0.0
2016-Nov-27 22:32N 43°34' E 010°18'0 0.0
2016-Nov-27 21:32N 43°34' E 010°18'0 0.0
2016-Nov-27 20:32N 43°34' E 010°18'0 0.0
2016-Nov-27 19:32N 43°34' E 010°18'0 0.0
2016-Nov-27 18:32N 43°34' E 010°18'0 0.0
2016-Nov-27 17:32N 43°34' E 010°18'0 0.0
2016-Nov-27 16:32N 43°34' E 010°18'0 0.0
2016-Nov-27 15:32N 43°34' E 010°18'0 0.0
2016-Nov-27 14:32N 43°34' E 010°18'0 0.0
2016-Nov-27 13:32N 43°34' E 010°18'0 0.0
2016-Nov-27 12:28N 43°34' E 010°18'0 0.0
2016-Nov-27 11:28N 43°34' E 010°18'  
Track history (hours):
 
Tides and Currents Weather Stations Pressure Air Temp Water Temp Dewpoint Dewpoint Depression Visibility Wind Speed Wind Dir Waves Ship Positions

Gorgona

Last reported at 2016-Dec-07 11:24 UTC. Time now 2016-Dec-11 02:14 UTC.
Position N 43°30' E 010°16'.

Length 74 m; draft 3.5 m.

Type: Tanker. MMSI: 247164900.

Date/timePositionNaut miles runAvg speedWind from/ knotsBaromVisibWave heightAir tempDewpointWater temp
2016-Dec-07 11:24N 43°30' E 010°16'0 0.0
2016-Dec-07 10:33N 43°30' E 010°16'3 2.8
2016-Dec-07 09:34N 43°32' E 010°17'1 1.2
2016-Dec-07 08:33N 43°33' E 010°18'1 0.9
2016-Dec-07 07:33N 43°34' E 010°18'1 1.1
2016-Dec-07 06:33N 43°35' E 010°19'0 0.0
2016-Dec-07 05:30N 43°35' E 010°19'0 0.0
2016-Dec-07 04:33N 43°35' E 010°19'0 0.0
2016-Dec-07 03:33N 43°35' E 010°19'0 0.0
2016-Dec-07 02:33N 43°35' E 010°19'0 0.0
2016-Dec-07 01:33N 43°35' E 010°19'0 0.0
2016-Dec-07 00:30N 43°35' E 010°19'0 0.0
2016-Dec-06 23:33N 43°35' E 010°19'0 0.0
2016-Dec-06 22:33N 43°35' E 010°19'0 0.0
2016-Dec-06 21:33N 43°35' E 010°19'0 0.0
2016-Dec-06 20:33N 43°35' E 010°19'2 1.0
2016-Dec-06 18:32N 43°33' E 010°18'0 0.2
2016-Dec-06 17:25N 43°33' E 010°18'0 0.0
2016-Dec-06 16:28N 43°33' E 010°18'0 0.0
2016-Dec-06 15:31N 43°33' E 010°18'3 3.6
2016-Dec-06 14:32N 43°30' E 010°17'0 0.0
2016-Dec-06 13:29N 43°30' E 010°17'0 0.0
2016-Dec-06 12:32N 43°30' E 010°17'0 0.0
2016-Dec-06 11:32N 43°30' E 010°17'3 3.0
2016-Dec-06 10:33N 43°33' E 010°18'0 0.2
2016-Dec-06 09:33N 43°33' E 010°18'1 0.7
2016-Dec-06 08:31N 43°34' E 010°18'0 0.0
2016-Dec-06 07:31N 43°34' E 010°18'0 0.0
2016-Dec-06 06:28N 43°34' E 010°18'0 0.0
2016-Dec-06 05:28N 43°34' E 010°18'0 0.0
2016-Dec-06 04:31N 43°34' E 010°18'0 0.0
2016-Dec-06 03:25N 43°34' E 010°18'0 0.0
2016-Dec-06 02:31N 43°34' E 010°18'0 0.0
2016-Dec-06 01:31N 43°34' E 010°18'0 0.0
2016-Dec-06 00:31N 43°34' E 010°18'0 0.0
2016-Dec-05 23:31N 43°34' E 010°18'0 0.3
2016-Dec-05 22:33N 43°34' E 010°18'1 1.4
2016-Dec-05 21:33N 43°35' E 010°19'0 0.0
2016-Dec-05 20:33N 43°35' E 010°19'0 0.0
2016-Dec-05 19:33N 43°35' E 010°19'0 0.0
2016-Dec-05 18:33N 43°35' E 010°19'0 0.0
2016-Dec-05 17:32N 43°35' E 010°19'0 0.5
2016-Dec-05 16:33N 43°35' E 010°19'2 1.7
2016-Dec-05 15:33N 43°33' E 010°18'2 0.3
2016-Dec-05 09:32N 43°35' E 010°19'0 0.4
2016-Dec-05 08:33N 43°35' E 010°19'0 0.1
2016-Dec-05 07:28N 43°35' E 010°19'0 0.0
2016-Dec-05 06:13N 43°35' E 010°19'0 0.0
2016-Dec-05 05:31N 43°35' E 010°19'0 0.0
2016-Dec-05 04:31N 43°35' E 010°19'0 0.0
2016-Dec-05 03:31N 43°35' E 010°19'0 0.0
2016-Dec-05 02:28N 43°35' E 010°19'0 0.0
2016-Dec-05 01:28N 43°35' E 010°19'0 0.0
2016-Dec-05 00:31N 43°35' E 010°19'0 0.0
2016-Dec-04 23:31N 43°35' E 010°19'0 0.0
2016-Dec-04 22:31N 43°35' E 010°19'0 0.0
2016-Dec-04 21:28N 43°35' E 010°19'0 0.0
2016-Dec-04 20:31N 43°35' E 010°19'0 0.0
2016-Dec-04 19:31N 43°35' E 010°19'0 0.0
2016-Dec-04 18:34N 43°35' E 010°19'0 0.0
2016-Dec-04 17:33N 43°35' E 010°19'0 0.0
2016-Dec-04 16:33N 43°35' E 010°19'0 0.0
2016-Dec-04 15:33N 43°35' E 010°19'0 0.0
2016-Dec-04 14:33N 43°35' E 010°19'0 0.0
2016-Dec-04 13:30N 43°35' E 010°19'0 0.0
2016-Dec-04 12:33N 43°35' E 010°19'0 0.0
2016-Dec-04 11:33N 43°35' E 010°19'0 0.0
2016-Dec-04 10:33N 43°35' E 010°19'0 0.0
2016-Dec-04 09:33N 43°35' E 010°19'0 0.0
2016-Dec-04 08:33N 43°35' E 010°19'0 0.0
2016-Dec-04 07:33N 43°35' E 010°19'0 0.0
2016-Dec-04 06:33N 43°35' E 010°19'0 0.0
2016-Dec-04 05:33N 43°35' E 010°19'0 0.0
2016-Dec-04 04:33N 43°35' E 010°19'0 0.0
2016-Dec-04 03:33N 43°35' E 010°19'0 0.0
2016-Dec-04 02:24N 43°35' E 010°19'0 0.0
2016-Dec-04 01:33N 43°35' E 010°19'0 0.0
2016-Dec-04 00:27N 43°35' E 010°19'0 0.0
2016-Dec-03 23:30N 43°35' E 010°19'0 0.0
2016-Dec-03 22:30N 43°35' E 010°19'0 0.0
2016-Dec-03 21:24N 43°35' E 010°19'0 0.0
2016-Dec-03 20:30N 43°35' E 010°19'0 0.0
2016-Dec-03 19:30N 43°35' E 010°19'0 0.0
2016-Dec-03 18:30N 43°35' E 010°19'0 0.0
2016-Dec-03 17:33N 43°35' E 010°19'0 0.0
2016-Dec-03 16:27N 43°35' E 010°19'0 0.0
2016-Dec-03 15:30N 43°35' E 010°19'0 0.0
2016-Dec-03 14:33N 43°35' E 010°19'0 0.0
2016-Dec-03 13:27N 43°35' E 010°19'0 0.0
2016-Dec-03 12:30N 43°35' E 010°19'0 0.0
2016-Dec-03 11:33N 43°35' E 010°19'0 0.0
2016-Dec-03 10:24N 43°35' E 010°19'0 0.0
2016-Dec-03 09:33N 43°35' E 010°19'0 0.0
2016-Dec-03 08:27N 43°35' E 010°19'0 0.0
2016-Dec-03 07:33N 43°35' E 010°19'0 0.1
2016-Dec-03 06:32N 43°35' E 010°19'0 0.0
2016-Dec-03 05:32N 43°35' E 010°19'0 0.0
2016-Dec-03 04:32N 43°35' E 010°19'0 0.0
2016-Dec-03 03:32N 43°35' E 010°19'0 0.0
2016-Dec-03 02:32N 43°35' E 010°19'0 0.0
2016-Dec-03 01:32N 43°35' E 010°19'0 0.0
2016-Dec-03 00:32N 43°35' E 010°19'0 0.0
2016-Dec-02 23:29N 43°35' E 010°19'0 0.0
2016-Dec-02 22:32N 43°35' E 010°19'0 0.0
2016-Dec-02 21:32N 43°35' E 010°19'0 0.0
2016-Dec-02 20:32N 43°35' E 010°19'0 0.0
2016-Dec-02 19:32N 43°35' E 010°19'0 0.0
2016-Dec-02 18:32N 43°35' E 010°19'0 0.0
2016-Dec-02 17:32N 43°35' E 010°19'0 0.0
2016-Dec-02 16:29N 43°35' E 010°19'0 0.0
2016-Dec-02 15:32N 43°35' E 010°19'0 0.0
2016-Dec-02 14:32N 43°35' E 010°19'0 0.0
2016-Dec-02 13:32N 43°35' E 010°19'0 0.0
2016-Dec-02 12:29N 43°35' E 010°19'0 0.0
2016-Dec-02 11:29N 43°35' E 010°19'0 0.0
2016-Dec-02 10:32N 43°35' E 010°19'0 0.0
2016-Dec-02 09:32N 43°35' E 010°19'0 0.0
2016-Dec-02 08:32N 43°35' E 010°19'0 0.0
2016-Dec-02 07:32N 43°35' E 010°19'0 0.0
2016-Dec-02 06:32N 43°35' E 010°19'0 0.0
2016-Dec-02 05:32N 43°35' E 010°19'0 0.0
2016-Dec-02 04:32N 43°35' E 010°19'0 0.0
2016-Dec-02 03:32N 43°35' E 010°19'0 0.0
2016-Dec-02 02:32N 43°35' E 010°19'0 0.0
2016-Dec-02 01:32N 43°35' E 010°19'0 0.0
2016-Dec-02 00:32N 43°35' E 010°19'0 0.0
2016-Dec-01 23:29N 43°35' E 010°19'0 0.0
2016-Dec-01 22:32N 43°35' E 010°19'0 0.0
2016-Dec-01 21:32N 43°35' E 010°19'0 0.0
2016-Dec-01 20:31N 43°35' E 010°19'0 0.0
2016-Dec-01 19:31N 43°35' E 010°19'0 0.0
2016-Dec-01 18:31N 43°35' E 010°19'0 0.0
2016-Dec-01 17:31N 43°35' E 010°19'0 0.0
2016-Dec-01 16:31N 43°35' E 010°19'0 0.0
2016-Dec-01 15:31N 43°35' E 010°19'0 0.0
2016-Dec-01 14:31N 43°35' E 010°19'0 0.0
2016-Dec-01 13:31N 43°35' E 010°19'0 0.0
2016-Dec-01 12:31N 43°35' E 010°19'0 0.0
2016-Dec-01 11:31N 43°35' E 010°19'0 0.0
2016-Dec-01 10:31N 43°35' E 010°19'0 0.0
2016-Dec-01 09:31N 43°35' E 010°19'0 0.0
2016-Dec-01 08:31N 43°35' E 010°19'0 0.0
2016-Dec-01 07:31N 43°35' E 010°19'0 0.0
2016-Dec-01 06:31N 43°35' E 010°19'0 0.0
2016-Dec-01 05:31N 43°35' E 010°19'0 0.0
2016-Dec-01 04:31N 43°35' E 010°19'0 0.0
2016-Dec-01 03:31N 43°35' E 010°19'0 0.0
2016-Dec-01 02:31N 43°35' E 010°19'0 0.0
2016-Dec-01 01:31N 43°35' E 010°19'0 0.0
2016-Dec-01 00:31N 43°35' E 010°19'0 0.0
2016-Nov-30 23:31N 43°35' E 010°19'0 0.0
2016-Nov-30 22:31N 43°35' E 010°19'0 0.0
2016-Nov-30 21:31N 43°35' E 010°19'0 0.0
2016-Nov-30 20:31N 43°35' E 010°19'0 0.0
2016-Nov-30 19:31N 43°35' E 010°19'0 0.0
2016-Nov-30 18:31N 43°35' E 010°19'0 0.0
2016-Nov-30 17:31N 43°35' E 010°19'0 0.0
2016-Nov-30 16:31N 43°35' E 010°19'0 0.0
2016-Nov-30 15:31N 43°35' E 010°19'0 0.2
2016-Nov-30 14:32N 43°35' E 010°19'1 1.5
2016-Nov-30 13:31N 43°34' E 010°18'0 0.0
2016-Nov-30 12:28N 43°34' E 010°18'0 0.0
2016-Nov-30 11:31N 43°34' E 010°18'0 0.0
2016-Nov-30 10:31N 43°34' E 010°18'0 0.0
2016-Nov-30 09:31N 43°34' E 010°18'0 0.0
2016-Nov-30 08:28N 43°34' E 010°18'0 0.0
2016-Nov-30 07:31N 43°34' E 010°18'0 0.0
2016-Nov-30 06:31N 43°34' E 010°18'0 0.0
2016-Nov-30 05:31N 43°34' E 010°18'0 0.0
2016-Nov-30 04:31N 43°34' E 010°18'0 0.0
2016-Nov-30 03:31N 43°34' E 010°18'0 0.0
2016-Nov-30 02:31N 43°34' E 010°18'0 0.0
2016-Nov-30 01:34N 43°34' E 010°18'0 0.0
2016-Nov-30 00:33N 43°34' E 010°18'0 0.0
2016-Nov-29 23:33N 43°34' E 010°18'0 0.0
2016-Nov-29 22:33N 43°34' E 010°18'0 0.0
2016-Nov-29 21:33N 43°34' E 010°18'0 0.0
2016-Nov-29 20:33N 43°34' E 010°18'0 0.5
2016-Nov-29 19:32N 43°33' E 010°18'0 0.0
2016-Nov-29 18:26N 43°33' E 010°18'0 0.4
2016-Nov-29 17:33N 43°33' E 010°18'2 1.5
2016-Nov-29 16:28N 43°35' E 010°19'0 0.0
2016-Nov-29 15:31N 43°35' E 010°19'0 0.0
2016-Nov-29 14:25N 43°35' E 010°19'0 0.4
2016-Nov-29 13:31N 43°34' E 010°19'0 0.0
2016-Nov-29 12:31N 43°34' E 010°19'0 0.2
2016-Nov-29 11:31N 43°34' E 010°19'1 0.9
2016-Nov-29 10:32N 43°35' E 010°19'0 0.0
2016-Nov-29 09:29N 43°35' E 010°19'0 0.0
2016-Nov-29 08:32N 43°35' E 010°19'0 0.0
2016-Nov-29 07:32N 43°35' E 010°19'0 0.0
2016-Nov-29 06:32N 43°35' E 010°19'0 0.0
2016-Nov-29 05:32N 43°35' E 010°19'0 0.0
2016-Nov-29 04:29N 43°35' E 010°19'0 0.0
2016-Nov-29 03:32N 43°35' E 010°19'0 0.0
2016-Nov-29 02:32N 43°35' E 010°19'0 0.0
2016-Nov-29 01:32N 43°35' E 010°19'0 0.0
2016-Nov-29 00:32N 43°35' E 010°19'0 0.0
2016-Nov-28 23:32N 43°35' E 010°19'0 0.0
2016-Nov-28 22:32N 43°35' E 010°19'0 0.0
2016-Nov-28 21:32N 43°35' E 010°19'0 0.0
2016-Nov-28 20:32N 43°35' E 010°19'0 0.0
2016-Nov-28 19:29N 43°35' E 010°19'0 0.0
2016-Nov-28 18:32N 43°35' E 010°19'0 0.0
2016-Nov-28 17:32N 43°35' E 010°19'0 0.0
2016-Nov-28 16:32N 43°35' E 010°19'2 1.7
2016-Nov-28 15:29N 43°34' E 010°18'0 0.0
2016-Nov-28 14:32N 43°34' E 010°18'0 0.0
2016-Nov-28 13:29N 43°34' E 010°18'0 0.0
2016-Nov-28 12:29N 43°34' E 010°18'0 0.0
2016-Nov-28 11:26N 43°34' E 010°18'0 0.0
2016-Nov-28 10:32N 43°34' E 010°18'0 0.0
2016-Nov-28 09:32N 43°34' E 010°18'0 0.0
2016-Nov-28 08:32N 43°34' E 010°18'0 0.0
2016-Nov-28 07:32N 43°34' E 010°18'0 0.0
2016-Nov-28 06:32N 43°34' E 010°18'0 0.0
2016-Nov-28 05:32N 43°34' E 010°18'0 0.0
2016-Nov-28 04:32N 43°34' E 010°18'0 0.0
2016-Nov-28 03:32N 43°34' E 010°18'0 0.0
2016-Nov-28 02:26N 43°34' E 010°18'0 0.0
2016-Nov-28 01:32N 43°34' E 010°18'0 0.0
2016-Nov-28 00:32N 43°34' E 010°18'0 0.0
2016-Nov-27 23:32N 43°34' E 010°18'0 0.0
2016-Nov-27 22:32N 43°34' E 010°18'0 0.0
2016-Nov-27 21:32N 43°34' E 010°18'0 0.0
2016-Nov-27 20:32N 43°34' E 010°18'0 0.0
2016-Nov-27 19:32N 43°34' E 010°18'0 0.0
2016-Nov-27 18:32N 43°34' E 010°18'0 0.0
2016-Nov-27 17:32N 43°34' E 010°18'0 0.0
2016-Nov-27 16:32N 43°34' E 010°18'0 0.0
2016-Nov-27 15:32N 43°34' E 010°18'0 0.0
2016-Nov-27 14:32N 43°34' E 010°18'0 0.0
2016-Nov-27 13:32N 43°34' E 010°18'0 0.0
2016-Nov-27 12:28N 43°34' E 010°18'0 0.0
2016-Nov-27 11:28N 43°34' E 010°18'  

Dump ship's entire track history